sensor_id;sensor_type;location;lat;lon;timestamp;P1;durP1;ratioP1;P2;durP2;ratioP2
19808;SDS011;48538;32.784;-96.802;2023-04-03T00:00:38;15.85;;;9.85;;
19808;SDS011;48538;32.784;-96.802;2023-04-03T00:03:05;17.17;;;9.68;;
19808;SDS011;48538;32.784;-96.802;2023-04-03T00:05:34;19.90;;;10.65;;
19808;SDS011;48538;32.784;-96.802;2023-04-03T00:08:01;19.90;;;11.55;;
19808;SDS011;48538;32.784;-96.802;2023-04-03T00:10:28;19.60;;;10.73;;
19808;SDS011;48538;32.784;-96.802;2023-04-03T00:12:54;18.15;;;11.27;;
19808;SDS011;48538;32.784;-96.802;2023-04-03T00:15:20;16.63;;;10.40;;
19808;SDS011;48538;32.784;-96.802;2023-04-03T00:17:47;16.38;;;10.95;;
19808;SDS011;48538;32.784;-96.802;2023-04-03T00:20:13;21.95;;;10.82;;
19808;SDS011;48538;32.784;-96.802;2023-04-03T00:22:39;18.45;;;11.57;;
19808;SDS011;48538;32.784;-96.802;2023-04-03T00:25:06;22.63;;;11.98;;
19808;SDS011;48538;32.784;-96.802;2023-04-03T00:27:33;19.55;;;10.90;;
19808;SDS011;48538;32.784;-96.802;2023-04-03T00:30:02;22.00;;;11.73;;
19808;SDS011;48538;32.784;-96.802;2023-04-03T00:32:29;22.10;;;12.13;;
19808;SDS011;48538;32.784;-96.802;2023-04-03T00:34:55;22.42;;;10.68;;
19808;SDS011;48538;32.784;-96.802;2023-04-03T00:37:21;24.42;;;12.65;;
19808;SDS011;48538;32.784;-96.802;2023-04-03T00:39:48;20.88;;;12.18;;
19808;SDS011;48538;32.784;-96.802;2023-04-03T00:42:14;25.52;;;13.25;;
19808;SDS011;48538;32.784;-96.802;2023-04-03T00:47:08;19.90;;;12.82;;
19808;SDS011;48538;32.784;-96.802;2023-04-03T00:49:39;23.52;;;12.68;;
19808;SDS011;48538;32.784;-96.802;2023-04-03T00:52:08;21.90;;;12.20;;
19808;SDS011;48538;32.784;-96.802;2023-04-03T00:54:41;21.13;;;12.57;;
19808;SDS011;48538;32.784;-96.802;2023-04-03T00:57:09;28.40;;;12.13;;
19808;SDS011;48538;32.784;-96.802;2023-04-03T00:59:38;20.92;;;12.13;;
19808;SDS011;48538;32.784;-96.802;2023-04-03T01:02:09;27.08;;;12.35;;
19808;SDS011;48538;32.784;-96.802;2023-04-03T01:04:37;27.27;;;15.95;;
19808;SDS011;48538;32.784;-96.802;2023-04-03T01:07:06;28.50;;;14.40;;
19808;SDS011;48538;32.784;-96.802;2023-04-03T01:09:38;28.33;;;15.00;;
19808;SDS011;48538;32.784;-96.802;2023-04-03T01:12:15;14.80;;;8.23;;
19808;SDS011;48538;32.784;-96.802;2023-04-03T01:14:44;13.65;;;8.05;;
19808;SDS011;48538;32.784;-96.802;2023-04-03T01:17:28;18.98;;;9.20;;
19808;SDS011;48538;32.784;-96.802;2023-04-03T01:25:37;24.70;;;13.32;;
19808;SDS011;48538;32.784;-96.802;2023-04-03T01:28:13;21.02;;;12.45;;
19808;SDS011;48538;32.784;-96.802;2023-04-03T01:33:38;29.55;;;14.35;;
19808;SDS011;48538;32.784;-96.802;2023-04-03T01:36:05;22.50;;;13.48;;
19808;SDS011;48538;32.784;-96.802;2023-04-03T01:38:32;22.23;;;13.73;;
19808;SDS011;48538;32.784;-96.802;2023-04-03T01:40:58;25.30;;;14.40;;
19808;SDS011;48538;32.784;-96.802;2023-04-03T01:43:25;21.08;;;12.88;;
19808;SDS011;48538;32.784;-96.802;2023-04-03T01:45:51;26.60;;;14.98;;
19808;SDS011;48538;32.784;-96.802;2023-04-03T01:48:20;27.75;;;15.13;;
19808;SDS011;48538;32.784;-96.802;2023-04-03T01:50:46;25.63;;;15.50;;
19808;SDS011;48538;32.784;-96.802;2023-04-03T01:53:12;24.60;;;15.40;;
19808;SDS011;48538;32.784;-96.802;2023-04-03T01:55:39;24.02;;;14.93;;
19808;SDS011;48538;32.784;-96.802;2023-04-03T01:58:05;29.23;;;16.08;;
19808;SDS011;48538;32.784;-96.802;2023-04-03T02:00:32;30.38;;;16.63;;
19808;SDS011;48538;32.784;-96.802;2023-04-03T02:02:58;26.83;;;15.88;;
19808;SDS011;48538;32.784;-96.802;2023-04-03T02:05:25;27.38;;;16.58;;
19808;SDS011;48538;32.784;-96.802;2023-04-03T02:07:51;32.35;;;16.50;;
19808;SDS011;48538;32.784;-96.802;2023-04-03T02:10:18;27.88;;;15.45;;
19808;SDS011;48538;32.784;-96.802;2023-04-03T02:12:44;30.73;;;15.70;;
19808;SDS011;48538;32.784;-96.802;2023-04-03T02:15:11;27.83;;;15.43;;
19808;SDS011;48538;32.784;-96.802;2023-04-03T02:17:37;26.33;;;15.95;;
19808;SDS011;48538;32.784;-96.802;2023-04-03T02:20:06;26.20;;;16.67;;
19808;SDS011;48538;32.784;-96.802;2023-04-03T02:22:33;26.45;;;14.63;;
19808;SDS011;48538;32.784;-96.802;2023-04-03T02:24:59;31.75;;;17.92;;
19808;SDS011;48538;32.784;-96.802;2023-04-03T02:27:26;29.08;;;16.17;;
19808;SDS011;48538;32.784;-96.802;2023-04-03T02:29:52;28.13;;;16.42;;
19808;SDS011;48538;32.784;-96.802;2023-04-03T02:32:19;26.13;;;15.55;;
19808;SDS011;48538;32.784;-96.802;2023-04-03T02:34:45;27.73;;;16.23;;
19808;SDS011;48538;32.784;-96.802;2023-04-03T02:37:11;27.75;;;16.13;;
19808;SDS011;48538;32.784;-96.802;2023-04-03T02:39:38;27.83;;;16.85;;
19808;SDS011;48538;32.784;-96.802;2023-04-03T02:42:04;31.45;;;17.15;;
19808;SDS011;48538;32.784;-96.802;2023-04-03T02:44:30;24.95;;;15.95;;
19808;SDS011;48538;32.784;-96.802;2023-04-03T02:46:57;25.25;;;13.73;;
19808;SDS011;48538;32.784;-96.802;2023-04-03T02:49:23;31.88;;;16.98;;
19808;SDS011;48538;32.784;-96.802;2023-04-03T02:51:50;29.10;;;16.98;;
19808;SDS011;48538;32.784;-96.802;2023-04-03T02:54:16;23.95;;;14.82;;
19808;SDS011;48538;32.784;-96.802;2023-04-03T02:56:42;30.27;;;16.08;;
19808;SDS011;48538;32.784;-96.802;2023-04-03T02:59:09;29.33;;;15.82;;
19808;SDS011;48538;32.784;-96.802;2023-04-03T03:01:35;28.10;;;16.23;;
19808;SDS011;48538;32.784;-96.802;2023-04-03T03:04:01;30.17;;;15.20;;
19808;SDS011;48538;32.784;-96.802;2023-04-03T03:06:28;25.58;;;16.58;;
19808;SDS011;48538;32.784;-96.802;2023-04-03T03:08:54;28.13;;;16.23;;
19808;SDS011;48538;32.784;-96.802;2023-04-03T03:11:20;26.80;;;16.42;;
19808;SDS011;48538;32.784;-96.802;2023-04-03T03:13:47;25.13;;;16.65;;
19808;SDS011;48538;32.784;-96.802;2023-04-03T03:16:13;28.30;;;15.45;;
19808;SDS011;48538;32.784;-96.802;2023-04-03T03:18:40;30.80;;;17.60;;
19808;SDS011;48538;32.784;-96.802;2023-04-03T03:21:06;29.73;;;16.58;;
19808;SDS011;48538;32.784;-96.802;2023-04-03T03:23:34;28.60;;;18.73;;
19808;SDS011;48538;32.784;-96.802;2023-04-03T03:26:03;30.27;;;18.60;;
19808;SDS011;48538;32.784;-96.802;2023-04-03T03:28:31;27.25;;;16.80;;
19808;SDS011;48538;32.784;-96.802;2023-04-03T03:30:58;32.78;;;18.33;;
19808;SDS011;48538;32.784;-96.802;2023-04-03T03:33:27;29.48;;;17.05;;
19808;SDS011;48538;32.784;-96.802;2023-04-03T03:35:54;32.08;;;16.92;;
19808;SDS011;48538;32.784;-96.802;2023-04-03T03:38:20;30.63;;;17.65;;
19808;SDS011;48538;32.784;-96.802;2023-04-03T03:40:47;33.20;;;19.02;;
19808;SDS011;48538;32.784;-96.802;2023-04-03T03:43:17;37.17;;;18.35;;
19808;SDS011;48538;32.784;-96.802;2023-04-03T03:45:44;32.75;;;17.25;;
19808;SDS011;48538;32.784;-96.802;2023-04-03T03:48:11;27.52;;;15.38;;
19808;SDS011;48538;32.784;-96.802;2023-04-03T03:50:37;28.05;;;16.02;;
19808;SDS011;48538;32.784;-96.802;2023-04-03T03:53:04;26.90;;;16.13;;
19808;SDS011;48538;32.784;-96.802;2023-04-03T03:55:30;30.90;;;16.85;;
19808;SDS011;48538;32.784;-96.802;2023-04-03T03:57:56;26.40;;;15.48;;
19808;SDS011;48538;32.784;-96.802;2023-04-03T04:00:23;26.42;;;16.38;;
19808;SDS011;48538;32.784;-96.802;2023-04-03T04:02:49;25.30;;;14.77;;
19808;SDS011;48538;32.784;-96.802;2023-04-03T04:05:15;22.27;;;15.00;;
19808;SDS011;48538;32.784;-96.802;2023-04-03T04:07:45;24.90;;;14.13;;
19808;SDS011;48538;32.784;-96.802;2023-04-03T04:10:11;25.08;;;13.25;;
19808;SDS011;48538;32.784;-96.802;2023-04-03T04:12:38;26.70;;;13.55;;
19808;SDS011;48538;32.784;-96.802;2023-04-03T04:15:05;20.17;;;13.00;;
19808;SDS011;48538;32.784;-96.802;2023-04-03T04:17:32;22.20;;;12.07;;
19808;SDS011;48538;32.784;-96.802;2023-04-03T04:20:00;15.68;;;10.35;;
19808;SDS011;48538;32.784;-96.802;2023-04-03T04:22:28;21.13;;;11.73;;
19808;SDS011;48538;32.784;-96.802;2023-04-03T04:24:54;19.00;;;11.63;;
19808;SDS011;48538;32.784;-96.802;2023-04-03T04:27:20;18.17;;;10.88;;
19808;SDS011;48538;32.784;-96.802;2023-04-03T04:29:47;17.33;;;10.20;;
19808;SDS011;48538;32.784;-96.802;2023-04-03T04:32:13;25.45;;;11.68;;
19808;SDS011;48538;32.784;-96.802;2023-04-03T04:34:39;19.80;;;10.15;;
19808;SDS011;48538;32.784;-96.802;2023-04-03T04:37:06;16.05;;;10.25;;
19808;SDS011;48538;32.784;-96.802;2023-04-03T04:39:32;15.23;;;10.25;;
19808;SDS011;48538;32.784;-96.802;2023-04-03T04:42:01;14.75;;;10.35;;
19808;SDS011;48538;32.784;-96.802;2023-04-03T04:44:28;16.92;;;10.48;;
19808;SDS011;48538;32.784;-96.802;2023-04-03T04:46:54;17.55;;;11.00;;
19808;SDS011;48538;32.784;-96.802;2023-04-03T04:49:20;17.95;;;9.95;;
19808;SDS011;48538;32.784;-96.802;2023-04-03T04:51:47;17.05;;;10.50;;
19808;SDS011;48538;32.784;-96.802;2023-04-03T04:54:13;20.73;;;10.68;;
19808;SDS011;48538;32.784;-96.802;2023-04-03T04:56:40;17.45;;;11.27;;
19808;SDS011;48538;32.784;-96.802;2023-04-03T04:59:06;22.08;;;11.35;;
19808;SDS011;48538;32.784;-96.802;2023-04-03T05:01:32;17.38;;;10.02;;
19808;SDS011;48538;32.784;-96.802;2023-04-03T05:03:58;20.20;;;11.07;;
19808;SDS011;48538;32.784;-96.802;2023-04-03T05:06:25;16.40;;;10.77;;
19808;SDS011;48538;32.784;-96.802;2023-04-03T05:08:51;17.58;;;10.82;;
19808;SDS011;48538;32.784;-96.802;2023-04-03T05:11:17;15.43;;;10.77;;
19808;SDS011;48538;32.784;-96.802;2023-04-03T05:13:45;19.88;;;10.95;;
19808;SDS011;48538;32.784;-96.802;2023-04-03T05:16:11;21.10;;;10.38;;
19808;SDS011;48538;32.784;-96.802;2023-04-03T05:18:38;18.98;;;9.98;;
19808;SDS011;48538;32.784;-96.802;2023-04-03T05:21:04;20.70;;;10.45;;
19808;SDS011;48538;32.784;-96.802;2023-04-03T05:23:33;16.42;;;11.05;;
19808;SDS011;48538;32.784;-96.802;2023-04-03T05:25:59;15.35;;;10.27;;
19808;SDS011;48538;32.784;-96.802;2023-04-03T05:28:26;17.08;;;10.30;;
19808;SDS011;48538;32.784;-96.802;2023-04-03T05:30:56;16.52;;;10.35;;
19808;SDS011;48538;32.784;-96.802;2023-04-03T05:33:23;18.95;;;10.90;;
19808;SDS011;48538;32.784;-96.802;2023-04-03T05:35:52;18.48;;;9.65;;
19808;SDS011;48538;32.784;-96.802;2023-04-03T05:38:18;16.60;;;9.95;;
19808;SDS011;48538;32.784;-96.802;2023-04-03T05:40:45;14.40;;;10.13;;
19808;SDS011;48538;32.784;-96.802;2023-04-03T05:43:12;17.55;;;9.93;;
19808;SDS011;48538;32.784;-96.802;2023-04-03T05:45:38;18.58;;;10.93;;
19808;SDS011;48538;32.784;-96.802;2023-04-03T05:48:05;15.13;;;10.60;;
19808;SDS011;48538;32.784;-96.802;2023-04-03T05:50:31;18.58;;;10.00;;
19808;SDS011;48538;32.784;-96.802;2023-04-03T05:52:57;16.42;;;10.35;;
19808;SDS011;48538;32.784;-96.802;2023-04-03T05:55:28;15.60;;;11.20;;
19808;SDS011;48538;32.784;-96.802;2023-04-03T05:57:55;15.43;;;9.65;;
19808;SDS011;48538;32.784;-96.802;2023-04-03T06:00:26;15.88;;;11.05;;
19808;SDS011;48538;32.784;-96.802;2023-04-03T06:02:54;19.92;;;10.98;;
19808;SDS011;48538;32.784;-96.802;2023-04-03T06:05:22;18.45;;;10.55;;
19808;SDS011;48538;32.784;-96.802;2023-04-03T06:07:53;20.42;;;10.73;;
19808;SDS011;48538;32.784;-96.802;2023-04-03T06:10:20;21.17;;;12.40;;
19808;SDS011;48538;32.784;-96.802;2023-04-03T06:12:48;20.73;;;12.75;;
19808;SDS011;48538;32.784;-96.802;2023-04-03T06:15:15;20.45;;;12.20;;
19808;SDS011;48538;32.784;-96.802;2023-04-03T06:17:44;19.90;;;11.70;;
19808;SDS011;48538;32.784;-96.802;2023-04-03T06:20:11;21.98;;;12.43;;
19808;SDS011;48538;32.784;-96.802;2023-04-03T06:22:38;20.90;;;11.10;;
19808;SDS011;48538;32.784;-96.802;2023-04-03T06:25:05;17.27;;;11.82;;
19808;SDS011;48538;32.784;-96.802;2023-04-03T06:27:34;19.35;;;11.88;;
19808;SDS011;48538;32.784;-96.802;2023-04-03T06:30:00;18.10;;;11.82;;
19808;SDS011;48538;32.784;-96.802;2023-04-03T06:32:28;21.52;;;11.90;;
19808;SDS011;48538;32.784;-96.802;2023-04-03T06:34:55;18.98;;;11.55;;
19808;SDS011;48538;32.784;-96.802;2023-04-03T06:37:25;19.05;;;11.95;;
19808;SDS011;48538;32.784;-96.802;2023-04-03T06:39:53;20.45;;;11.70;;
19808;SDS011;48538;32.784;-96.802;2023-04-03T06:42:20;16.40;;;10.70;;
19808;SDS011;48538;32.784;-96.802;2023-04-03T06:44:48;16.15;;;10.82;;
19808;SDS011;48538;32.784;-96.802;2023-04-03T06:47:15;19.27;;;10.93;;
19808;SDS011;48538;32.784;-96.802;2023-04-03T06:49:42;22.20;;;11.63;;
19808;SDS011;48538;32.784;-96.802;2023-04-03T06:52:09;17.70;;;11.80;;
19808;SDS011;48538;32.784;-96.802;2023-04-03T06:54:37;17.25;;;11.13;;
19808;SDS011;48538;32.784;-96.802;2023-04-03T06:57:04;20.20;;;11.75;;
19808;SDS011;48538;32.784;-96.802;2023-04-03T06:59:31;20.05;;;11.23;;
19808;SDS011;48538;32.784;-96.802;2023-04-03T07:01:57;21.55;;;12.27;;
19808;SDS011;48538;32.784;-96.802;2023-04-03T07:04:25;18.52;;;11.07;;
19808;SDS011;48538;32.784;-96.802;2023-04-03T07:06:51;15.00;;;10.55;;
19808;SDS011;48538;32.784;-96.802;2023-04-03T07:09:17;17.17;;;11.40;;
19808;SDS011;48538;32.784;-96.802;2023-04-03T07:11:44;16.23;;;10.95;;
19808;SDS011;48538;32.784;-96.802;2023-04-03T07:14:10;17.52;;;10.82;;
19808;SDS011;48538;32.784;-96.802;2023-04-03T07:16:40;17.55;;;11.38;;
19808;SDS011;48538;32.784;-96.802;2023-04-03T07:19:06;16.05;;;10.98;;
19808;SDS011;48538;32.784;-96.802;2023-04-03T07:21:33;15.65;;;10.77;;
19808;SDS011;48538;32.784;-96.802;2023-04-03T07:24:00;15.27;;;10.98;;
19808;SDS011;48538;32.784;-96.802;2023-04-03T07:26:27;17.80;;;10.43;;
19808;SDS011;48538;32.784;-96.802;2023-04-03T07:28:53;16.08;;;10.55;;
19808;SDS011;48538;32.784;-96.802;2023-04-03T07:31:20;17.90;;;11.07;;
19808;SDS011;48538;32.784;-96.802;2023-04-03T07:33:46;16.35;;;11.02;;
19808;SDS011;48538;32.784;-96.802;2023-04-03T07:36:17;15.10;;;10.45;;
19808;SDS011;48538;32.784;-96.802;2023-04-03T07:38:44;19.38;;;10.82;;
19808;SDS011;48538;32.784;-96.802;2023-04-03T07:41:14;20.33;;;11.15;;
19808;SDS011;48538;32.784;-96.802;2023-04-03T07:43:43;18.98;;;10.95;;
19808;SDS011;48538;32.784;-96.802;2023-04-03T07:46:10;17.35;;;10.40;;
19808;SDS011;48538;32.784;-96.802;2023-04-03T07:48:37;14.45;;;9.75;;
19808;SDS011;48538;32.784;-96.802;2023-04-03T07:51:04;17.70;;;10.55;;
19808;SDS011;48538;32.784;-96.802;2023-04-03T07:53:31;18.88;;;11.85;;
19808;SDS011;48538;32.784;-96.802;2023-04-03T07:55:58;17.35;;;10.57;;
19808;SDS011;48538;32.784;-96.802;2023-04-03T07:58:25;17.48;;;10.02;;
19808;SDS011;48538;32.784;-96.802;2023-04-03T08:00:52;18.48;;;10.48;;
19808;SDS011;48538;32.784;-96.802;2023-04-03T08:03:18;16.23;;;9.85;;
19808;SDS011;48538;32.784;-96.802;2023-04-03T08:05:46;18.48;;;10.07;;
19808;SDS011;48538;32.784;-96.802;2023-04-03T08:08:14;14.98;;;10.43;;
19808;SDS011;48538;32.784;-96.802;2023-04-03T08:10:43;14.90;;;10.40;;
19808;SDS011;48538;32.784;-96.802;2023-04-03T08:13:09;17.67;;;10.55;;
19808;SDS011;48538;32.784;-96.802;2023-04-03T08:15:35;20.73;;;10.52;;
19808;SDS011;48538;32.784;-96.802;2023-04-03T08:18:02;18.88;;;10.27;;
19808;SDS011;48538;32.784;-96.802;2023-04-03T08:20:28;17.88;;;9.60;;
19808;SDS011;48538;32.784;-96.802;2023-04-03T08:22:55;14.98;;;9.50;;
19808;SDS011;48538;32.784;-96.802;2023-04-03T08:25:21;16.10;;;10.50;;
19808;SDS011;48538;32.784;-96.802;2023-04-03T08:27:48;17.27;;;9.95;;
19808;SDS011;48538;32.784;-96.802;2023-04-03T08:30:14;15.48;;;9.65;;
19808;SDS011;48538;32.784;-96.802;2023-04-03T08:32:41;15.80;;;10.00;;
19808;SDS011;48538;32.784;-96.802;2023-04-03T08:35:08;15.57;;;10.23;;
19808;SDS011;48538;32.784;-96.802;2023-04-03T08:37:36;14.98;;;9.88;;
19808;SDS011;48538;32.784;-96.802;2023-04-03T08:40:04;14.60;;;10.27;;
19808;SDS011;48538;32.784;-96.802;2023-04-03T08:47:38;18.13;;;11.20;;
19808;SDS011;48538;32.784;-96.802;2023-04-03T08:50:29;16.65;;;10.10;;
19808;SDS011;48538;32.784;-96.802;2023-04-03T08:52:59;17.75;;;10.80;;
19808;SDS011;48538;32.784;-96.802;2023-04-03T08:55:34;16.60;;;10.13;;
19808;SDS011;48538;32.784;-96.802;2023-04-03T08:58:12;16.45;;;10.50;;
19808;SDS011;48538;32.784;-96.802;2023-04-03T09:00:51;14.02;;;10.50;;
19808;SDS011;48538;32.784;-96.802;2023-04-03T09:03:20;20.35;;;11.10;;
19808;SDS011;48538;32.784;-96.802;2023-04-03T09:06:00;19.17;;;10.57;;
19808;SDS011;48538;32.784;-96.802;2023-04-03T09:08:31;20.92;;;11.45;;
19808;SDS011;48538;32.784;-96.802;2023-04-03T09:19:16;15.18;;;10.52;;
19808;SDS011;48538;32.784;-96.802;2023-04-03T09:22:31;20.75;;;11.10;;
19808;SDS011;48538;32.784;-96.802;2023-04-03T09:27:28;20.50;;;11.45;;
19808;SDS011;48538;32.784;-96.802;2023-04-03T09:29:55;15.27;;;11.60;;
19808;SDS011;48538;32.784;-96.802;2023-04-03T09:35:02;21.60;;;11.55;;
19808;SDS011;48538;32.784;-96.802;2023-04-03T09:37:45;19.13;;;12.45;;
19808;SDS011;48538;32.784;-96.802;2023-04-03T09:42:53;23.67;;;12.13;;
19808;SDS011;48538;32.784;-96.802;2023-04-03T09:45:28;20.65;;;13.65;;
19808;SDS011;48538;32.784;-96.802;2023-04-03T09:48:07;27.00;;;13.93;;
19808;SDS011;48538;32.784;-96.802;2023-04-03T09:53:35;24.33;;;13.13;;
19808;SDS011;48538;32.784;-96.802;2023-04-03T09:56:21;26.13;;;13.98;;
19808;SDS011;48538;32.784;-96.802;2023-04-03T10:04:08;21.05;;;12.15;;
19808;SDS011;48538;32.784;-96.802;2023-04-03T10:06:45;27.40;;;13.02;;
19808;SDS011;48538;32.784;-96.802;2023-04-03T10:09:21;25.13;;;14.45;;
19808;SDS011;48538;32.784;-96.802;2023-04-03T10:14:36;23.88;;;14.60;;
19808;SDS011;48538;32.784;-96.802;2023-04-03T10:20:01;29.17;;;13.93;;
19808;SDS011;48538;32.784;-96.802;2023-04-03T10:35:56;21.75;;;14.18;;
19808;SDS011;48538;32.784;-96.802;2023-04-03T10:38:42;27.88;;;15.73;;
19808;SDS011;48538;32.784;-96.802;2023-04-03T10:41:47;25.05;;;14.88;;
19808;SDS011;48538;32.784;-96.802;2023-04-03T10:51:04;33.50;;;15.63;;
19808;SDS011;48538;32.784;-96.802;2023-04-03T10:56:15;24.15;;;15.55;;
19808;SDS011;48538;32.784;-96.802;2023-04-03T10:58:48;25.80;;;16.20;;
19808;SDS011;48538;32.784;-96.802;2023-04-03T11:01:29;26.35;;;16.88;;
19808;SDS011;48538;32.784;-96.802;2023-04-03T11:03:59;26.52;;;17.77;;
19808;SDS011;48538;32.784;-96.802;2023-04-03T11:06:48;33.80;;;18.00;;
19808;SDS011;48538;32.784;-96.802;2023-04-03T11:09:36;29.05;;;17.00;;
19808;SDS011;48538;32.784;-96.802;2023-04-03T11:12:11;32.35;;;17.05;;
19808;SDS011;48538;32.784;-96.802;2023-04-03T11:14:46;23.92;;;16.25;;
19808;SDS011;48538;32.784;-96.802;2023-04-03T11:19:57;31.45;;;17.73;;
19808;SDS011;48538;32.784;-96.802;2023-04-03T11:22:41;30.27;;;17.50;;
19808;SDS011;48538;32.784;-96.802;2023-04-03T11:27:44;30.70;;;17.98;;
19808;SDS011;48538;32.784;-96.802;2023-04-03T11:31:02;31.20;;;16.63;;
19808;SDS011;48538;32.784;-96.802;2023-04-03T11:36:06;27.92;;;17.05;;
19808;SDS011;48538;32.784;-96.802;2023-04-03T11:38:47;27.98;;;18.10;;
19808;SDS011;48538;32.784;-96.802;2023-04-03T11:41:18;30.95;;;19.55;;
19808;SDS011;48538;32.784;-96.802;2023-04-03T12:16:22;27.02;;;16.40;;
19808;SDS011;48538;32.784;-96.802;2023-04-03T12:18:56;26.25;;;17.30;;
19808;SDS011;48538;32.784;-96.802;2023-04-03T12:26:46;27.73;;;17.30;;
19808;SDS011;48538;32.784;-96.802;2023-04-03T12:37:37;28.50;;;17.70;;
19808;SDS011;48538;32.784;-96.802;2023-04-03T12:45:59;30.13;;;19.48;;
19808;SDS011;48538;32.784;-96.802;2023-04-03T12:48:37;31.42;;;17.98;;
19808;SDS011;48538;32.784;-96.802;2023-04-03T12:51:14;30.08;;;16.42;;
19808;SDS011;48538;32.784;-96.802;2023-04-03T12:54:03;26.70;;;16.73;;
19808;SDS011;48538;32.784;-96.802;2023-04-03T12:56:39;27.48;;;16.85;;
19808;SDS011;48538;32.784;-96.802;2023-04-03T12:59:16;36.38;;;18.00;;
19808;SDS011;48538;32.784;-96.802;2023-04-03T13:01:43;29.98;;;17.80;;
19808;SDS011;48538;32.784;-96.802;2023-04-03T13:04:18;30.23;;;18.05;;
19808;SDS011;48538;32.784;-96.802;2023-04-03T13:06:44;27.65;;;17.55;;
19808;SDS011;48538;32.784;-96.802;2023-04-03T13:09:27;28.77;;;17.52;;
19808;SDS011;48538;32.784;-96.802;2023-04-03T13:12:15;28.33;;;19.00;;
19808;SDS011;48538;32.784;-96.802;2023-04-03T13:14:51;26.70;;;17.33;;
19808;SDS011;48538;32.784;-96.802;2023-04-03T13:17:19;27.40;;;17.60;;
19808;SDS011;48538;32.784;-96.802;2023-04-03T13:19:46;32.10;;;17.40;;
19808;SDS011;48538;32.784;-96.802;2023-04-03T13:22:25;30.92;;;17.60;;
19808;SDS011;48538;32.784;-96.802;2023-04-03T13:24:56;27.88;;;16.30;;
19808;SDS011;48538;32.784;-96.802;2023-04-03T13:27:25;20.70;;;16.15;;
19808;SDS011;48538;32.784;-96.802;2023-04-03T13:29:53;28.25;;;17.27;;
19808;SDS011;48538;32.784;-96.802;2023-04-03T13:32:23;29.13;;;18.10;;
19808;SDS011;48538;32.784;-96.802;2023-04-03T13:34:51;28.65;;;18.00;;
19808;SDS011;48538;32.784;-96.802;2023-04-03T13:37:21;26.95;;;17.98;;
19808;SDS011;48538;32.784;-96.802;2023-04-03T13:40:08;27.17;;;17.30;;
19808;SDS011;48538;32.784;-96.802;2023-04-03T13:42:38;27.45;;;17.05;;
19808;SDS011;48538;32.784;-96.802;2023-04-03T13:45:11;26.77;;;17.05;;
19808;SDS011;48538;32.784;-96.802;2023-04-03T13:47:45;27.65;;;17.35;;
19808;SDS011;48538;32.784;-96.802;2023-04-03T13:50:20;20.83;;;14.90;;
19808;SDS011;48538;32.784;-96.802;2023-04-03T13:53:11;24.00;;;15.98;;
19808;SDS011;48538;32.784;-96.802;2023-04-03T13:55:57;27.92;;;16.83;;
19808;SDS011;48538;32.784;-96.802;2023-04-03T13:58:32;27.55;;;17.25;;
19808;SDS011;48538;32.784;-96.802;2023-04-03T14:01:06;29.02;;;16.08;;
19808;SDS011;48538;32.784;-96.802;2023-04-03T14:06:15;30.27;;;17.40;;
19808;SDS011;48538;32.784;-96.802;2023-04-03T14:08:42;23.58;;;15.98;;
19808;SDS011;48538;32.784;-96.802;2023-04-03T14:11:14;32.28;;;16.85;;
19808;SDS011;48538;32.784;-96.802;2023-04-03T14:13:41;28.55;;;17.23;;
19808;SDS011;48538;32.784;-96.802;2023-04-03T14:16:12;30.92;;;17.58;;
19808;SDS011;48538;32.784;-96.802;2023-04-03T14:18:44;24.50;;;15.38;;
19808;SDS011;48538;32.784;-96.802;2023-04-03T14:21:11;27.92;;;16.15;;
19808;SDS011;48538;32.784;-96.802;2023-04-03T14:23:39;27.30;;;16.90;;
19808;SDS011;48538;32.784;-96.802;2023-04-03T14:26:12;25.48;;;16.38;;
19808;SDS011;48538;32.784;-96.802;2023-04-03T14:28:42;20.55;;;15.30;;
19808;SDS011;48538;32.784;-96.802;2023-04-03T14:31:10;24.02;;;16.02;;
19808;SDS011;48538;32.784;-96.802;2023-04-03T14:33:38;25.20;;;15.48;;
19808;SDS011;48538;32.784;-96.802;2023-04-03T14:36:17;26.08;;;15.05;;
19808;SDS011;48538;32.784;-96.802;2023-04-03T14:38:46;24.55;;;15.45;;
19808;SDS011;48538;32.784;-96.802;2023-04-03T14:41:16;21.23;;;15.57;;
19808;SDS011;48538;32.784;-96.802;2023-04-03T14:43:44;25.38;;;15.75;;
19808;SDS011;48538;32.784;-96.802;2023-04-03T14:46:13;25.33;;;14.45;;
19808;SDS011;48538;32.784;-96.802;2023-04-03T14:48:41;28.63;;;15.40;;
19808;SDS011;48538;32.784;-96.802;2023-04-03T14:51:12;22.10;;;15.20;;
19808;SDS011;48538;32.784;-96.802;2023-04-03T14:53:40;29.85;;;15.77;;
19808;SDS011;48538;32.784;-96.802;2023-04-03T14:56:19;19.55;;;14.40;;
19808;SDS011;48538;32.784;-96.802;2023-04-03T14:58:48;23.80;;;14.98;;
19808;SDS011;48538;32.784;-96.802;2023-04-03T15:01:19;31.60;;;15.45;;
19808;SDS011;48538;32.784;-96.802;2023-04-03T15:03:45;22.33;;;15.35;;
19808;SDS011;48538;32.784;-96.802;2023-04-03T15:06:11;23.25;;;14.93;;
19808;SDS011;48538;32.784;-96.802;2023-04-03T15:08:42;20.10;;;14.38;;
19808;SDS011;48538;32.784;-96.802;2023-04-03T15:11:12;24.08;;;14.65;;
19808;SDS011;48538;32.784;-96.802;2023-04-03T15:13:39;25.60;;;14.35;;
19808;SDS011;48538;32.784;-96.802;2023-04-03T15:16:14;18.42;;;13.57;;
19808;SDS011;48538;32.784;-96.802;2023-04-03T15:18:42;23.80;;;15.07;;
19808;SDS011;48538;32.784;-96.802;2023-04-03T15:21:10;20.42;;;14.07;;
19808;SDS011;48538;32.784;-96.802;2023-04-03T15:23:39;22.73;;;13.27;;
19808;SDS011;48538;32.784;-96.802;2023-04-03T15:26:05;19.70;;;13.52;;
19808;SDS011;48538;32.784;-96.802;2023-04-03T15:28:37;21.15;;;13.35;;
19808;SDS011;48538;32.784;-96.802;2023-04-03T15:31:08;18.80;;;13.68;;
19808;SDS011;48538;32.784;-96.802;2023-04-03T15:33:35;19.42;;;13.98;;
19808;SDS011;48538;32.784;-96.802;2023-04-03T15:36:02;17.45;;;12.68;;
19808;SDS011;48538;32.784;-96.802;2023-04-03T15:38:29;20.90;;;12.70;;
19808;SDS011;48538;32.784;-96.802;2023-04-03T15:40:55;16.60;;;11.55;;
19808;SDS011;48538;32.784;-96.802;2023-04-03T15:43:22;22.50;;;12.55;;
19808;SDS011;48538;32.784;-96.802;2023-04-03T15:45:49;18.77;;;12.25;;
19808;SDS011;48538;32.784;-96.802;2023-04-03T15:48:16;18.45;;;12.02;;
19808;SDS011;48538;32.784;-96.802;2023-04-03T15:50:43;17.30;;;11.15;;
19808;SDS011;48538;32.784;-96.802;2023-04-03T15:53:09;20.58;;;12.15;;
19808;SDS011;48538;32.784;-96.802;2023-04-03T15:55:37;18.00;;;11.43;;
19808;SDS011;48538;32.784;-96.802;2023-04-03T15:58:04;18.13;;;11.90;;
19808;SDS011;48538;32.784;-96.802;2023-04-03T16:00:30;20.27;;;11.63;;
19808;SDS011;48538;32.784;-96.802;2023-04-03T16:02:59;21.40;;;11.43;;
19808;SDS011;48538;32.784;-96.802;2023-04-03T16:05:37;20.05;;;12.15;;
19808;SDS011;48538;32.784;-96.802;2023-04-03T16:08:05;20.80;;;11.93;;
19808;SDS011;48538;32.784;-96.802;2023-04-03T16:10:33;25.25;;;11.98;;
19808;SDS011;48538;32.784;-96.802;2023-04-03T16:13:00;21.08;;;12.27;;
19808;SDS011;48538;32.784;-96.802;2023-04-03T16:15:27;18.70;;;11.75;;
19808;SDS011;48538;32.784;-96.802;2023-04-03T16:17:55;21.77;;;11.88;;
19808;SDS011;48538;32.784;-96.802;2023-04-03T16:20:23;16.98;;;12.02;;